sensor_id;sensor_type;location;lat;lon;timestamp;P1;durP1;ratioP1;P2;durP2;ratioP2
46765;SDS011;32527;51.986;5.842;2023-06-19T00:00:47;45.15;;;42.25;;
46765;SDS011;32527;51.986;5.842;2023-06-19T00:03:13;39.67;;;37.17;;
46765;SDS011;32527;51.986;5.842;2023-06-19T00:05:39;38.70;;;36.35;;
46765;SDS011;32527;51.986;5.842;2023-06-19T00:08:05;40.63;;;38.08;;
46765;SDS011;32527;51.986;5.842;2023-06-19T00:10:31;41.17;;;38.55;;
46765;SDS011;32527;51.986;5.842;2023-06-19T00:12:57;39.50;;;36.92;;
46765;SDS011;32527;51.986;5.842;2023-06-19T00:15:23;36.88;;;34.67;;
46765;SDS011;32527;51.986;5.842;2023-06-19T00:17:48;38.65;;;36.30;;
46765;SDS011;32527;51.986;5.842;2023-06-19T00:20:14;43.88;;;40.95;;
46765;SDS011;32527;51.986;5.842;2023-06-19T00:22:40;39.28;;;36.67;;
46765;SDS011;32527;51.986;5.842;2023-06-19T00:25:06;39.10;;;36.65;;
46765;SDS011;32527;51.986;5.842;2023-06-19T00:27:32;40.80;;;38.38;;
46765;SDS011;32527;51.986;5.842;2023-06-19T00:29:59;36.50;;;34.08;;
46765;SDS011;32527;51.986;5.842;2023-06-19T00:32:27;39.13;;;36.78;;
46765;SDS011;32527;51.986;5.842;2023-06-19T00:34:55;38.33;;;35.80;;
46765;SDS011;32527;51.986;5.842;2023-06-19T00:37:24;36.20;;;33.75;;
46765;SDS011;32527;51.986;5.842;2023-06-19T00:39:50;39.58;;;37.13;;
46765;SDS011;32527;51.986;5.842;2023-06-19T00:42:16;39.85;;;37.38;;
46765;SDS011;32527;51.986;5.842;2023-06-19T00:44:43;33.67;;;31.58;;
46765;SDS011;32527;51.986;5.842;2023-06-19T00:47:09;36.88;;;34.53;;
46765;SDS011;32527;51.986;5.842;2023-06-19T00:49:35;35.13;;;32.65;;
46765;SDS011;32527;51.986;5.842;2023-06-19T00:52:01;36.45;;;34.15;;
46765;SDS011;32527;51.986;5.842;2023-06-19T00:54:27;35.20;;;33.00;;
46765;SDS011;32527;51.986;5.842;2023-06-19T00:56:54;31.58;;;29.58;;
46765;SDS011;32527;51.986;5.842;2023-06-19T00:59:22;34.45;;;32.17;;
46765;SDS011;32527;51.986;5.842;2023-06-19T01:01:48;29.13;;;27.13;;
46765;SDS011;32527;51.986;5.842;2023-06-19T01:04:13;30.92;;;28.92;;
46765;SDS011;32527;51.986;5.842;2023-06-19T01:07:13;28.17;;;26.42;;
46765;SDS011;32527;51.986;5.842;2023-06-19T01:09:37;32.88;;;30.73;;
46765;SDS011;32527;51.986;5.842;2023-06-19T01:12:12;31.70;;;29.50;;
46765;SDS011;32527;51.986;5.842;2023-06-19T01:14:50;29.65;;;27.75;;
46765;SDS011;32527;51.986;5.842;2023-06-19T01:17:19;31.73;;;29.77;;
46765;SDS011;32527;51.986;5.842;2023-06-19T01:19:46;31.45;;;29.35;;
46765;SDS011;32527;51.986;5.842;2023-06-19T01:22:21;33.97;;;31.73;;
46765;SDS011;32527;51.986;5.842;2023-06-19T01:24:48;33.47;;;31.38;;
46765;SDS011;32527;51.986;5.842;2023-06-19T01:27:14;31.80;;;29.73;;
46765;SDS011;32527;51.986;5.842;2023-06-19T01:29:40;31.10;;;29.20;;
46765;SDS011;32527;51.986;5.842;2023-06-19T01:32:08;31.60;;;29.52;;
46765;SDS011;32527;51.986;5.842;2023-06-19T01:34:38;29.13;;;27.23;;
46765;SDS011;32527;51.986;5.842;2023-06-19T01:37:04;28.48;;;26.60;;
46765;SDS011;32527;51.986;5.842;2023-06-19T01:39:32;29.77;;;27.88;;
46765;SDS011;32527;51.986;5.842;2023-06-19T01:41:58;29.80;;;27.85;;
46765;SDS011;32527;51.986;5.842;2023-06-19T01:44:25;30.23;;;28.23;;
46765;SDS011;32527;51.986;5.842;2023-06-19T01:46:51;28.08;;;26.27;;
46765;SDS011;32527;51.986;5.842;2023-06-19T01:49:17;28.17;;;26.42;;
46765;SDS011;32527;51.986;5.842;2023-06-19T01:51:45;30.75;;;28.88;;
46765;SDS011;32527;51.986;5.842;2023-06-19T01:54:11;28.63;;;26.65;;
46765;SDS011;32527;51.986;5.842;2023-06-19T01:56:37;26.60;;;24.98;;
46765;SDS011;32527;51.986;5.842;2023-06-19T01:59:03;26.77;;;24.85;;
46765;SDS011;32527;51.986;5.842;2023-06-19T02:01:29;27.77;;;25.98;;
46765;SDS011;32527;51.986;5.842;2023-06-19T02:03:55;28.90;;;26.98;;
46765;SDS011;32527;51.986;5.842;2023-06-19T02:06:21;27.08;;;25.42;;
46765;SDS011;32527;51.986;5.842;2023-06-19T02:08:47;26.65;;;24.95;;
46765;SDS011;32527;51.986;5.842;2023-06-19T02:11:13;29.30;;;27.40;;
46765;SDS011;32527;51.986;5.842;2023-06-19T02:13:39;28.60;;;26.75;;
46765;SDS011;32527;51.986;5.842;2023-06-19T02:16:05;28.70;;;26.95;;
46765;SDS011;32527;51.986;5.842;2023-06-19T02:18:32;30.08;;;28.17;;
46765;SDS011;32527;51.986;5.842;2023-06-19T02:20:58;28.65;;;26.58;;
46765;SDS011;32527;51.986;5.842;2023-06-19T02:23:24;29.60;;;27.63;;
46765;SDS011;32527;51.986;5.842;2023-06-19T02:25:50;28.75;;;26.83;;
46765;SDS011;32527;51.986;5.842;2023-06-19T02:28:16;28.80;;;26.90;;
46765;SDS011;32527;51.986;5.842;2023-06-19T02:30:42;28.25;;;26.52;;
46765;SDS011;32527;51.986;5.842;2023-06-19T02:33:07;28.30;;;26.42;;
46765;SDS011;32527;51.986;5.842;2023-06-19T02:35:33;28.25;;;26.45;;
46765;SDS011;32527;51.986;5.842;2023-06-19T02:37:58;29.60;;;27.65;;
46765;SDS011;32527;51.986;5.842;2023-06-19T02:40:24;28.75;;;26.90;;
46765;SDS011;32527;51.986;5.842;2023-06-19T02:42:52;29.55;;;27.60;;
46765;SDS011;32527;51.986;5.842;2023-06-19T02:45:18;25.90;;;24.25;;
46765;SDS011;32527;51.986;5.842;2023-06-19T02:47:46;29.08;;;27.33;;
46765;SDS011;32527;51.986;5.842;2023-06-19T02:50:12;30.15;;;28.27;;
46765;SDS011;32527;51.986;5.842;2023-06-19T02:52:38;31.20;;;29.25;;
46765;SDS011;32527;51.986;5.842;2023-06-19T02:55:05;31.75;;;29.75;;
46765;SDS011;32527;51.986;5.842;2023-06-19T02:57:32;33.28;;;31.27;;
46765;SDS011;32527;51.986;5.842;2023-06-19T02:59:58;32.03;;;30.02;;
46765;SDS011;32527;51.986;5.842;2023-06-19T03:06:05;29.67;;;27.50;;
46765;SDS011;32527;51.986;5.842;2023-06-19T03:08:33;34.40;;;32.40;;
46765;SDS011;32527;51.986;5.842;2023-06-19T03:10:59;36.17;;;33.95;;
46765;SDS011;32527;51.986;5.842;2023-06-19T03:13:25;37.22;;;35.08;;
46765;SDS011;32527;51.986;5.842;2023-06-19T03:15:51;38.22;;;36.00;;
46765;SDS011;32527;51.986;5.842;2023-06-19T03:18:17;36.30;;;34.20;;
46765;SDS011;32527;51.986;5.842;2023-06-19T03:20:43;36.90;;;34.60;;
46765;SDS011;32527;51.986;5.842;2023-06-19T03:23:10;38.60;;;36.45;;
46765;SDS011;32527;51.986;5.842;2023-06-19T03:25:36;36.90;;;34.88;;
46765;SDS011;32527;51.986;5.842;2023-06-19T03:28:02;40.67;;;38.42;;
46765;SDS011;32527;51.986;5.842;2023-06-19T03:30:29;42.83;;;40.50;;
46765;SDS011;32527;51.986;5.842;2023-06-19T03:32:55;40.75;;;38.50;;
46765;SDS011;32527;51.986;5.842;2023-06-19T03:35:40;40.38;;;38.10;;
46765;SDS011;32527;51.986;5.842;2023-06-19T03:38:08;37.40;;;35.42;;
46765;SDS011;32527;51.986;5.842;2023-06-19T03:40:35;42.05;;;39.75;;
46765;SDS011;32527;51.986;5.842;2023-06-19T03:43:07;42.40;;;40.13;;
46765;SDS011;32527;51.986;5.842;2023-06-19T03:45:34;41.55;;;39.35;;
46765;SDS011;32527;51.986;5.842;2023-06-19T03:48:00;42.95;;;40.63;;
46765;SDS011;32527;51.986;5.842;2023-06-19T03:50:26;42.50;;;40.08;;
46765;SDS011;32527;51.986;5.842;2023-06-19T03:52:52;46.15;;;43.10;;
46765;SDS011;32527;51.986;5.842;2023-06-19T03:55:19;46.10;;;43.63;;
46765;SDS011;32527;51.986;5.842;2023-06-19T03:57:45;43.78;;;41.35;;
46765;SDS011;32527;51.986;5.842;2023-06-19T04:00:11;47.80;;;45.17;;
46765;SDS011;32527;51.986;5.842;2023-06-19T04:02:39;48.00;;;45.35;;
46765;SDS011;32527;51.986;5.842;2023-06-19T04:05:05;44.15;;;41.65;;
46765;SDS011;32527;51.986;5.842;2023-06-19T04:07:31;49.42;;;46.72;;
46765;SDS011;32527;51.986;5.842;2023-06-19T04:09:58;48.10;;;45.40;;
46765;SDS011;32527;51.986;5.842;2023-06-19T04:12:24;49.10;;;45.95;;
46765;SDS011;32527;51.986;5.842;2023-06-19T04:14:50;54.53;;;51.55;;
46765;SDS011;32527;51.986;5.842;2023-06-19T04:17:16;50.65;;;47.78;;
46765;SDS011;32527;51.986;5.842;2023-06-19T04:19:42;44.75;;;42.15;;
46765;SDS011;32527;51.986;5.842;2023-06-19T04:22:09;48.53;;;45.97;;
46765;SDS011;32527;51.986;5.842;2023-06-19T04:24:35;43.13;;;40.83;;
46765;SDS011;32527;51.986;5.842;2023-06-19T04:27:01;45.15;;;42.78;;
46765;SDS011;32527;51.986;5.842;2023-06-19T04:29:27;46.00;;;43.53;;
46765;SDS011;32527;51.986;5.842;2023-06-19T04:31:56;47.03;;;44.40;;
46765;SDS011;32527;51.986;5.842;2023-06-19T04:34:22;50.13;;;47.38;;
46765;SDS011;32527;51.986;5.842;2023-06-19T04:36:48;48.35;;;45.75;;
46765;SDS011;32527;51.986;5.842;2023-06-19T04:39:14;52.35;;;49.38;;
46765;SDS011;32527;51.986;5.842;2023-06-19T04:41:42;49.65;;;46.90;;
46765;SDS011;32527;51.986;5.842;2023-06-19T04:44:09;45.75;;;43.35;;
46765;SDS011;32527;51.986;5.842;2023-06-19T04:46:37;42.92;;;40.60;;
46765;SDS011;32527;51.986;5.842;2023-06-19T04:49:03;43.35;;;40.95;;
46765;SDS011;32527;51.986;5.842;2023-06-19T04:51:30;47.28;;;44.67;;
46765;SDS011;32527;51.986;5.842;2023-06-19T04:53:57;44.10;;;41.72;;
46765;SDS011;32527;51.986;5.842;2023-06-19T04:56:23;63.47;;;59.42;;
46765;SDS011;32527;51.986;5.842;2023-06-19T04:58:49;51.88;;;49.15;;
46765;SDS011;32527;51.986;5.842;2023-06-19T05:01:16;43.13;;;40.67;;
46765;SDS011;32527;51.986;5.842;2023-06-19T05:03:43;51.50;;;48.50;;
46765;SDS011;32527;51.986;5.842;2023-06-19T05:06:11;47.03;;;44.53;;
46765;SDS011;32527;51.986;5.842;2023-06-19T05:08:37;45.78;;;43.28;;
46765;SDS011;32527;51.986;5.842;2023-06-19T05:11:03;45.42;;;42.90;;
46765;SDS011;32527;51.986;5.842;2023-06-19T05:13:29;45.13;;;42.80;;
46765;SDS011;32527;51.986;5.842;2023-06-19T05:15:55;48.13;;;45.25;;
46765;SDS011;32527;51.986;5.842;2023-06-19T05:18:22;50.03;;;47.33;;
46765;SDS011;32527;51.986;5.842;2023-06-19T05:20:48;52.78;;;49.95;;
46765;SDS011;32527;51.986;5.842;2023-06-19T05:23:14;59.53;;;56.22;;
46765;SDS011;32527;51.986;5.842;2023-06-19T05:25:40;54.17;;;51.28;;
46765;SDS011;32527;51.986;5.842;2023-06-19T05:28:08;59.08;;;55.88;;
46765;SDS011;32527;51.986;5.842;2023-06-19T05:30:34;61.00;;;57.90;;
46765;SDS011;32527;51.986;5.842;2023-06-19T05:33:00;67.65;;;63.67;;
46765;SDS011;32527;51.986;5.842;2023-06-19T05:35:26;63.85;;;60.55;;
46765;SDS011;32527;51.986;5.842;2023-06-19T05:37:52;62.47;;;59.28;;
46765;SDS011;32527;51.986;5.842;2023-06-19T05:40:18;70.35;;;66.30;;
46765;SDS011;32527;51.986;5.842;2023-06-19T05:42:44;69.32;;;65.72;;
46765;SDS011;32527;51.986;5.842;2023-06-19T05:45:10;68.53;;;64.93;;
46765;SDS011;32527;51.986;5.842;2023-06-19T05:47:36;71.18;;;67.55;;
46765;SDS011;32527;51.986;5.842;2023-06-19T05:50:02;73.15;;;69.05;;
46765;SDS011;32527;51.986;5.842;2023-06-19T05:52:28;71.75;;;68.05;;
46765;SDS011;32527;51.986;5.842;2023-06-19T05:54:55;75.85;;;71.85;;
46765;SDS011;32527;51.986;5.842;2023-06-19T05:57:23;69.88;;;66.10;;
46765;SDS011;32527;51.986;5.842;2023-06-19T05:59:49;64.65;;;61.22;;
46765;SDS011;32527;51.986;5.842;2023-06-19T06:02:15;64.97;;;61.35;;
46765;SDS011;32527;51.986;5.842;2023-06-19T06:04:41;66.68;;;63.08;;
46765;SDS011;32527;51.986;5.842;2023-06-19T06:07:08;65.90;;;62.38;;
46765;SDS011;32527;51.986;5.842;2023-06-19T06:09:34;62.20;;;58.80;;
46765;SDS011;32527;51.986;5.842;2023-06-19T06:12:00;66.05;;;62.53;;
46765;SDS011;32527;51.986;5.842;2023-06-19T06:14:26;60.97;;;57.60;;
46765;SDS011;32527;51.986;5.842;2023-06-19T06:16:52;67.93;;;64.13;;
46765;SDS011;32527;51.986;5.842;2023-06-19T06:19:22;59.35;;;55.83;;
46765;SDS011;32527;51.986;5.842;2023-06-19T06:21:51;62.72;;;59.33;;
46765;SDS011;32527;51.986;5.842;2023-06-19T06:24:17;66.20;;;62.50;;
46765;SDS011;32527;51.986;5.842;2023-06-19T06:26:43;59.47;;;56.08;;
46765;SDS011;32527;51.986;5.842;2023-06-19T06:29:10;57.78;;;54.67;;
46765;SDS011;32527;51.986;5.842;2023-06-19T06:31:37;64.40;;;60.88;;
46765;SDS011;32527;51.986;5.842;2023-06-19T06:34:03;52.38;;;49.35;;
46765;SDS011;32527;51.986;5.842;2023-06-19T06:36:29;54.33;;;51.33;;
46765;SDS011;32527;51.986;5.842;2023-06-19T06:38:55;50.85;;;48.05;;
46765;SDS011;32527;51.986;5.842;2023-06-19T06:41:21;47.15;;;44.55;;
46765;SDS011;32527;51.986;5.842;2023-06-19T06:43:47;47.67;;;45.17;;
46765;SDS011;32527;51.986;5.842;2023-06-19T06:46:13;42.88;;;40.42;;
46765;SDS011;32527;51.986;5.842;2023-06-19T06:48:39;40.88;;;38.45;;
46765;SDS011;32527;51.986;5.842;2023-06-19T06:51:05;43.88;;;41.38;;
46765;SDS011;32527;51.986;5.842;2023-06-19T06:53:31;41.17;;;38.65;;
46765;SDS011;32527;51.986;5.842;2023-06-19T06:55:58;41.67;;;39.35;;
46765;SDS011;32527;51.986;5.842;2023-06-19T06:58:28;39.30;;;37.05;;
46765;SDS011;32527;51.986;5.842;2023-06-19T07:00:55;43.05;;;40.55;;
46765;SDS011;32527;51.986;5.842;2023-06-19T07:03:20;38.42;;;36.38;;
46765;SDS011;32527;51.986;5.842;2023-06-19T07:05:50;41.72;;;39.30;;
46765;SDS011;32527;51.986;5.842;2023-06-19T07:08:15;38.40;;;36.08;;
46765;SDS011;32527;51.986;5.842;2023-06-19T07:10:41;40.40;;;37.83;;
46765;SDS011;32527;51.986;5.842;2023-06-19T07:13:07;38.33;;;36.22;;
46765;SDS011;32527;51.986;5.842;2023-06-19T07:15:33;38.03;;;35.80;;
46765;SDS011;32527;51.986;5.842;2023-06-19T07:17:59;39.78;;;37.42;;
46765;SDS011;32527;51.986;5.842;2023-06-19T07:20:26;36.85;;;34.78;;
46765;SDS011;32527;51.986;5.842;2023-06-19T07:22:52;36.55;;;34.40;;
46765;SDS011;32527;51.986;5.842;2023-06-19T07:25:18;38.28;;;36.15;;
46765;SDS011;32527;51.986;5.842;2023-06-19T07:27:44;40.33;;;37.88;;
46765;SDS011;32527;51.986;5.842;2023-06-19T07:30:10;38.67;;;36.47;;
46765;SDS011;32527;51.986;5.842;2023-06-19T07:32:36;44.38;;;41.88;;
46765;SDS011;32527;51.986;5.842;2023-06-19T07:35:03;54.67;;;51.67;;
46765;SDS011;32527;51.986;5.842;2023-06-19T07:37:30;66.00;;;62.40;;
46765;SDS011;32527;51.986;5.842;2023-06-19T07:39:55;69.07;;;65.28;;
46765;SDS011;32527;51.986;5.842;2023-06-19T07:42:21;75.32;;;71.35;;
46765;SDS011;32527;51.986;5.842;2023-06-19T07:44:47;68.13;;;64.45;;
46765;SDS011;32527;51.986;5.842;2023-06-19T07:47:14;71.80;;;68.00;;
46765;SDS011;32527;51.986;5.842;2023-06-19T07:49:41;68.32;;;64.53;;
46765;SDS011;32527;51.986;5.842;2023-06-19T07:52:07;56.67;;;53.72;;
46765;SDS011;32527;51.986;5.842;2023-06-19T07:54:36;53.50;;;50.42;;
46765;SDS011;32527;51.986;5.842;2023-06-19T07:57:12;59.35;;;55.97;;
46765;SDS011;32527;51.986;5.842;2023-06-19T07:59:38;66.25;;;62.72;;
46765;SDS011;32527;51.986;5.842;2023-06-19T08:02:03;68.68;;;65.03;;
46765;SDS011;32527;51.986;5.842;2023-06-19T08:04:30;77.03;;;72.88;;
46765;SDS011;32527;51.986;5.842;2023-06-19T08:06:56;63.70;;;59.97;;
46765;SDS011;32527;51.986;5.842;2023-06-19T08:09:21;57.47;;;54.47;;
46765;SDS011;32527;51.986;5.842;2023-06-19T08:11:47;55.97;;;52.75;;
46765;SDS011;32527;51.986;5.842;2023-06-19T08:14:13;52.67;;;49.88;;
46765;SDS011;32527;51.986;5.842;2023-06-19T08:16:39;43.35;;;40.85;;
46765;SDS011;32527;51.986;5.842;2023-06-19T08:19:05;44.85;;;42.35;;
46765;SDS011;32527;51.986;5.842;2023-06-19T08:21:31;45.22;;;42.20;;
46765;SDS011;32527;51.986;5.842;2023-06-19T08:23:57;38.90;;;36.72;;
46765;SDS011;32527;51.986;5.842;2023-06-19T08:26:23;41.30;;;38.92;;
46765;SDS011;32527;51.986;5.842;2023-06-19T08:28:49;39.40;;;37.25;;
46765;SDS011;32527;51.986;5.842;2023-06-19T08:31:15;43.83;;;41.15;;
46765;SDS011;32527;51.986;5.842;2023-06-19T08:33:41;37.47;;;35.25;;
46765;SDS011;32527;51.986;5.842;2023-06-19T08:36:07;39.30;;;37.00;;
46765;SDS011;32527;51.986;5.842;2023-06-19T08:38:33;40.10;;;37.78;;
46765;SDS011;32527;51.986;5.842;2023-06-19T08:41:00;39.42;;;37.17;;
46765;SDS011;32527;51.986;5.842;2023-06-19T08:43:26;41.90;;;39.72;;
46765;SDS011;32527;51.986;5.842;2023-06-19T08:45:54;44.42;;;41.88;;
46765;SDS011;32527;51.986;5.842;2023-06-19T08:48:41;41.22;;;39.10;;
46765;SDS011;32527;51.986;5.842;2023-06-19T08:51:07;44.50;;;42.00;;
46765;SDS011;32527;51.986;5.842;2023-06-19T08:53:33;47.17;;;44.58;;
46765;SDS011;32527;51.986;5.842;2023-06-19T08:56:02;57.10;;;54.13;;
46765;SDS011;32527;51.986;5.842;2023-06-19T08:58:28;63.88;;;60.35;;
46765;SDS011;32527;51.986;5.842;2023-06-19T09:00:54;62.13;;;58.67;;
46765;SDS011;32527;51.986;5.842;2023-06-19T09:03:20;61.75;;;58.42;;
46765;SDS011;32527;51.986;5.842;2023-06-19T09:05:46;61.90;;;58.35;;
46765;SDS011;32527;51.986;5.842;2023-06-19T09:08:14;58.63;;;55.28;;
46765;SDS011;32527;51.986;5.842;2023-06-19T09:10:41;51.55;;;48.80;;
46765;SDS011;32527;51.986;5.842;2023-06-19T09:13:07;54.17;;;50.67;;
46765;SDS011;32527;51.986;5.842;2023-06-19T09:15:37;49.70;;;46.92;;
46765;SDS011;32527;51.986;5.842;2023-06-19T09:18:08;50.53;;;47.35;;
46765;SDS011;32527;51.986;5.842;2023-06-19T09:20:37;53.40;;;50.50;;
46765;SDS011;32527;51.986;5.842;2023-06-19T09:23:08;51.15;;;48.35;;
46765;SDS011;32527;51.986;5.842;2023-06-19T09:25:54;49.83;;;47.13;;
46765;SDS011;32527;51.986;5.842;2023-06-19T09:28:26;52.03;;;49.30;;
46765;SDS011;32527;51.986;5.842;2023-06-19T09:31:02;54.67;;;51.58;;
46765;SDS011;32527;51.986;5.842;2023-06-19T09:33:31;49.03;;;46.17;;
46765;SDS011;32527;51.986;5.842;2023-06-19T09:35:58;47.95;;;45.17;;
46765;SDS011;32527;51.986;5.842;2023-06-19T09:38:25;49.03;;;46.05;;
46765;SDS011;32527;51.986;5.842;2023-06-19T09:40:52;44.33;;;41.83;;
46765;SDS011;32527;51.986;5.842;2023-06-19T09:43:19;48.88;;;46.08;;
46765;SDS011;32527;51.986;5.842;2023-06-19T09:45:49;48.13;;;45.42;;
46765;SDS011;32527;51.986;5.842;2023-06-19T09:48:17;54.55;;;51.38;;
46765;SDS011;32527;51.986;5.842;2023-06-19T09:50:52;48.28;;;45.45;;
46765;SDS011;32527;51.986;5.842;2023-06-19T09:53:24;49.33;;;46.17;;
46765;SDS011;32527;51.986;5.842;2023-06-19T09:55:50;45.95;;;43.45;;
46765;SDS011;32527;51.986;5.842;2023-06-19T09:58:17;51.67;;;48.22;;
46765;SDS011;32527;51.986;5.842;2023-06-19T10:00:45;45.53;;;42.78;;
46765;SDS011;32527;51.986;5.842;2023-06-19T10:03:12;54.15;;;50.30;;
46765;SDS011;32527;51.986;5.842;2023-06-19T10:05:39;47.53;;;44.72;;
46765;SDS011;32527;51.986;5.842;2023-06-19T10:08:05;40.65;;;38.30;;
46765;SDS011;32527;51.986;5.842;2023-06-19T10:10:31;44.80;;;41.72;;
46765;SDS011;32527;51.986;5.842;2023-06-19T10:12:59;40.92;;;38.42;;
46765;SDS011;32527;51.986;5.842;2023-06-19T10:15:26;38.25;;;35.85;;
46765;SDS011;32527;51.986;5.842;2023-06-19T10:17:58;36.75;;;34.50;;
46765;SDS011;32527;51.986;5.842;2023-06-19T10:20:26;42.70;;;40.08;;
46765;SDS011;32527;51.986;5.842;2023-06-19T10:25:23;45.45;;;42.78;;
46765;SDS011;32527;51.986;5.842;2023-06-19T10:27:49;43.80;;;41.10;;
46765;SDS011;32527;51.986;5.842;2023-06-19T10:30:17;35.95;;;33.85;;
46765;SDS011;32527;51.986;5.842;2023-06-19T10:32:47;29.98;;;28.13;;
46765;SDS011;32527;51.986;5.842;2023-06-19T10:35:13;30.70;;;28.77;;
46765;SDS011;32527;51.986;5.842;2023-06-19T10:37:40;33.65;;;31.55;;
46765;SDS011;32527;51.986;5.842;2023-06-19T10:40:08;30.25;;;28.30;;
46765;SDS011;32527;51.986;5.842;2023-06-19T10:42:42;30.05;;;28.17;;
46765;SDS011;32527;51.986;5.842;2023-06-19T10:45:12;29.52;;;27.73;;
46765;SDS011;32527;51.986;5.842;2023-06-19T10:47:41;29.75;;;27.73;;
46765;SDS011;32527;51.986;5.842;2023-06-19T10:50:10;30.08;;;28.20;;
46765;SDS011;32527;51.986;5.842;2023-06-19T10:52:39;32.28;;;30.42;;
46765;SDS011;32527;51.986;5.842;2023-06-19T10:55:06;31.30;;;29.33;;
46765;SDS011;32527;51.986;5.842;2023-06-19T10:57:32;32.22;;;29.98;;
46765;SDS011;32527;51.986;5.842;2023-06-19T10:59:58;29.80;;;28.10;;
46765;SDS011;32527;51.986;5.842;2023-06-19T11:02:24;29.33;;;27.52;;
46765;SDS011;32527;51.986;5.842;2023-06-19T11:04:56;32.03;;;29.85;;
46765;SDS011;32527;51.986;5.842;2023-06-19T11:07:22;33.90;;;31.90;;
46765;SDS011;32527;51.986;5.842;2023-06-19T11:09:51;32.58;;;30.50;;
46765;SDS011;32527;51.986;5.842;2023-06-19T11:12:20;32.72;;;30.92;;
46765;SDS011;32527;51.986;5.842;2023-06-19T11:14:47;37.38;;;35.22;;
46765;SDS011;32527;51.986;5.842;2023-06-19T11:17:14;39.40;;;37.03;;
46765;SDS011;32527;51.986;5.842;2023-06-19T11:19:40;35.72;;;33.67;;
46765;SDS011;32527;51.986;5.842;2023-06-19T11:22:08;37.90;;;35.67;;
46765;SDS011;32527;51.986;5.842;2023-06-19T11:24:35;37.70;;;35.53;;
46765;SDS011;32527;51.986;5.842;2023-06-19T11:27:01;37.65;;;35.53;;
46765;SDS011;32527;51.986;5.842;2023-06-19T11:29:29;43.80;;;41.13;;
46765;SDS011;32527;51.986;5.842;2023-06-19T11:32:05;40.05;;;37.83;;
46765;SDS011;32527;51.986;5.842;2023-06-19T11:34:37;38.47;;;36.40;;
46765;SDS011;32527;51.986;5.842;2023-06-19T11:37:11;42.80;;;40.35;;
46765;SDS011;32527;51.986;5.842;2023-06-19T11:39:36;47.13;;;43.33;;
46765;SDS011;32527;51.986;5.842;2023-06-19T11:42:03;45.22;;;42.65;;
46765;SDS011;32527;51.986;5.842;2023-06-19T11:44:29;42.47;;;39.97;;
46765;SDS011;32527;51.986;5.842;2023-06-19T11:46:58;41.58;;;39.08;;
46765;SDS011;32527;51.986;5.842;2023-06-19T11:49:24;40.45;;;38.03;;
46765;SDS011;32527;51.986;5.842;2023-06-19T11:51:50;35.58;;;33.58;;
46765;SDS011;32527;51.986;5.842;2023-06-19T11:54:16;36.05;;;33.92;;
46765;SDS011;32527;51.986;5.842;2023-06-19T11:56:45;37.92;;;35.75;;
46765;SDS011;32527;51.986;5.842;2023-06-19T11:59:12;41.25;;;38.95;;
46765;SDS011;32527;51.986;5.842;2023-06-19T12:01:39;38.92;;;36.90;;
46765;SDS011;32527;51.986;5.842;2023-06-19T12:04:05;41.38;;;39.15;;
46765;SDS011;32527;51.986;5.842;2023-06-19T12:06:32;37.65;;;35.55;;
46765;SDS011;32527;51.986;5.842;2023-06-19T12:09:00;32.53;;;30.73;;
46765;SDS011;32527;51.986;5.842;2023-06-19T12:11:26;33.20;;;31.23;;
46765;SDS011;32527;51.986;5.842;2023-06-19T12:13:52;33.70;;;31.25;;
46765;SDS011;32527;51.986;5.842;2023-06-19T12:16:18;31.10;;;29.20;;
46765;SDS011;32527;51.986;5.842;2023-06-19T12:18:44;27.65;;;26.02;;
46765;SDS011;32527;51.986;5.842;2023-06-19T12:21:09;30.42;;;28.52;;
46765;SDS011;32527;51.986;5.842;2023-06-19T12:23:35;33.95;;;31.75;;
46765;SDS011;32527;51.986;5.842;2023-06-19T12:26:01;31.70;;;29.80;;
46765;SDS011;32527;51.986;5.842;2023-06-19T12:28:27;30.52;;;28.77;;
46765;SDS011;32527;51.986;5.842;2023-06-19T12:30:54;33.00;;;31.02;;
46765;SDS011;32527;51.986;5.842;2023-06-19T12:33:21;30.58;;;28.38;;
46765;SDS011;32527;51.986;5.842;2023-06-19T12:35:47;27.42;;;25.52;;
46765;SDS011;32527;51.986;5.842;2023-06-19T12:38:13;28.50;;;26.80;;
46765;SDS011;32527;51.986;5.842;2023-06-19T12:40:39;27.90;;;26.27;;
46765;SDS011;32527;51.986;5.842;2023-06-19T12:43:05;30.17;;;28.55;;
46765;SDS011;32527;51.986;5.842;2023-06-19T12:45:31;32.45;;;30.60;;
46765;SDS011;32527;51.986;5.842;2023-06-19T12:47:57;35.10;;;32.88;;
46765;SDS011;32527;51.986;5.842;2023-06-19T12:50:23;38.33;;;35.83;;
46765;SDS011;32527;51.986;5.842;2023-06-19T12:52:50;40.50;;;37.70;;
46765;SDS011;32527;51.986;5.842;2023-06-19T12:55:16;32.88;;;31.05;;
46765;SDS011;32527;51.986;5.842;2023-06-19T12:57:42;36.05;;;33.22;;
46765;SDS011;32527;51.986;5.842;2023-06-19T13:00:12;34.95;;;33.05;;
46765;SDS011;32527;51.986;5.842;2023-06-19T13:02:38;31.75;;;29.80;;
46765;SDS011;32527;51.986;5.842;2023-06-19T13:05:05;32.35;;;30.45;;
46765;SDS011;32527;51.986;5.842;2023-06-19T13:07:31;32.28;;;30.52;;
46765;SDS011;32527;51.986;5.842;2023-06-19T13:09:58;28.65;;;27.05;;
46765;SDS011;32527;51.986;5.842;2023-06-19T13:12:24;31.63;;;29.83;;
46765;SDS011;32527;51.986;5.842;2023-06-19T13:14:49;34.97;;;32.83;;
46765;SDS011;32527;51.986;5.842;2023-06-19T13:17:15;31.90;;;30.20;;
46765;SDS011;32527;51.986;5.842;2023-06-19T13:19:41;28.98;;;27.38;;
46765;SDS011;32527;51.986;5.842;2023-06-19T13:22:08;33.95;;;31.83;;
46765;SDS011;32527;51.986;5.842;2023-06-19T13:24:34;31.27;;;29.48;;
46765;SDS011;32527;51.986;5.842;2023-06-19T13:27:00;36.00;;;33.80;;
46765;SDS011;32527;51.986;5.842;2023-06-19T13:29:25;32.40;;;30.38;;
46765;SDS011;32527;51.986;5.842;2023-06-19T13:31:51;31.90;;;30.08;;
46765;SDS011;32527;51.986;5.842;2023-06-19T13:34:18;33.92;;;31.70;;
46765;SDS011;32527;51.986;5.842;2023-06-19T13:36:44;30.85;;;29.00;;
46765;SDS011;32527;51.986;5.842;2023-06-19T13:39:10;30.73;;;29.02;;
46765;SDS011;32527;51.986;5.842;2023-06-19T13:41:36;32.60;;;30.55;;
46765;SDS011;32527;51.986;5.842;2023-06-19T13:44:02;33.15;;;31.35;;
46765;SDS011;32527;51.986;5.842;2023-06-19T13:46:28;34.22;;;32.35;;
46765;SDS011;32527;51.986;5.842;2023-06-19T13:48:56;38.90;;;36.80;;
46765;SDS011;32527;51.986;5.842;2023-06-19T13:51:22;42.55;;;40.25;;
46765;SDS011;32527;51.986;5.842;2023-06-19T13:53:49;42.25;;;40.05;;
46765;SDS011;32527;51.986;5.842;2023-06-19T13:56:15;42.90;;;40.70;;
46765;SDS011;32527;51.986;5.842;2023-06-19T13:58:41;45.15;;;42.72;;
46765;SDS011;32527;51.986;5.842;2023-06-19T14:01:08;45.13;;;42.70;;
46765;SDS011;32527;51.986;5.842;2023-06-19T14:03:35;46.95;;;44.55;;
46765;SDS011;32527;51.986;5.842;2023-06-19T14:06:02;45.00;;;42.55;;
46765;SDS011;32527;51.986;5.842;2023-06-19T14:08:27;45.47;;;43.17;;
46765;SDS011;32527;51.986;5.842;2023-06-19T14:10:54;44.67;;;42.30;;
46765;SDS011;32527;51.986;5.842;2023-06-19T14:13:20;42.33;;;40.17;;
46765;SDS011;32527;51.986;5.842;2023-06-19T14:15:46;42.92;;;40.72;;
46765;SDS011;32527;51.986;5.842;2023-06-19T14:18:12;40.38;;;38.13;;
46765;SDS011;32527;51.986;5.842;2023-06-19T14:20:39;38.25;;;36.10;;
46765;SDS011;32527;51.986;5.842;2023-06-19T14:23:06;38.92;;;36.78;;
46765;SDS011;32527;51.986;5.842;2023-06-19T14:25:33;39.03;;;37.00;;